sensor_id;sensor_type;location;lat;lon;timestamp;temperature;humidity
45837;DHT22;31548;51.420;-0.040;2022-12-29T00:00:59;10.00;99.90
45837;DHT22;31548;51.420;-0.040;2022-12-29T00:03:27;10.10;99.90
45837;DHT22;31548;51.420;-0.040;2022-12-29T00:05:56;10.10;99.90
45837;DHT22;31548;51.420;-0.040;2022-12-29T00:08:24;10.10;99.90
45837;DHT22;31548;51.420;-0.040;2022-12-29T00:11:08;10.00;99.90
45837;DHT22;31548;51.420;-0.040;2022-12-29T00:13:36;10.10;99.90
45837;DHT22;31548;51.420;-0.040;2022-12-29T00:16:23;10.00;99.90
45837;DHT22;31548;51.420;-0.040;2022-12-29T00:18:50;10.10;99.90
45837;DHT22;31548;51.420;-0.040;2022-12-29T00:21:20;10.10;99.90
45837;DHT22;31548;51.420;-0.040;2022-12-29T00:24:11;10.00;99.90
45837;DHT22;31548;51.420;-0.040;2022-12-29T00:29:49;10.10;99.90
45837;DHT22;31548;51.420;-0.040;2022-12-29T00:32:35;10.10;99.90
45837;DHT22;31548;51.420;-0.040;2022-12-29T00:35:31;10.10;99.90
45837;DHT22;31548;51.420;-0.040;2022-12-29T00:38:04;10.00;99.90
45837;DHT22;31548;51.420;-0.040;2022-12-29T00:40:50;10.00;99.90
45837;DHT22;31548;51.420;-0.040;2022-12-29T00:43:36;9.90;99.90
45837;DHT22;31548;51.420;-0.040;2022-12-29T00:46:21;9.90;99.90
45837;DHT22;31548;51.420;-0.040;2022-12-29T00:48:49;9.90;99.90
45837;DHT22;31548;51.420;-0.040;2022-12-29T00:51:49;9.80;99.90
45837;DHT22;31548;51.420;-0.040;2022-12-29T00:54:17;9.80;99.90
45837;DHT22;31548;51.420;-0.040;2022-12-29T00:56:48;9.70;99.90
45837;DHT22;31548;51.420;-0.040;2022-12-29T00:59:17;9.70;99.90
45837;DHT22;31548;51.420;-0.040;2022-12-29T01:01:45;9.70;99.90
45837;DHT22;31548;51.420;-0.040;2022-12-29T01:04:14;9.70;99.90
45837;DHT22;31548;51.420;-0.040;2022-12-29T01:06:41;9.70;99.90
45837;DHT22;31548;51.420;-0.040;2022-12-29T01:09:09;9.60;99.90
45837;DHT22;31548;51.420;-0.040;2022-12-29T01:11:56;9.60;99.90
45837;DHT22;31548;51.420;-0.040;2022-12-29T01:14:23;9.70;99.90
45837;DHT22;31548;51.420;-0.040;2022-12-29T01:16:51;9.80;99.90
45837;DHT22;31548;51.420;-0.040;2022-12-29T01:19:19;9.80;99.90
45837;DHT22;31548;51.420;-0.040;2022-12-29T01:21:48;9.80;99.90
45837;DHT22;31548;51.420;-0.040;2022-12-29T01:24:16;9.80;99.90
45837;DHT22;31548;51.420;-0.040;2022-12-29T01:26:46;9.80;99.90
45837;DHT22;31548;51.420;-0.040;2022-12-29T01:29:16;9.80;99.90
45837;DHT22;31548;51.420;-0.040;2022-12-29T01:31:45;9.80;99.90
45837;DHT22;31548;51.420;-0.040;2022-12-29T01:34:13;9.80;99.90
45837;DHT22;31548;51.420;-0.040;2022-12-29T01:36:40;9.80;99.90
45837;DHT22;31548;51.420;-0.040;2022-12-29T01:39:08;9.80;99.90
45837;DHT22;31548;51.420;-0.040;2022-12-29T01:41:35;9.80;99.90
45837;DHT22;31548;51.420;-0.040;2022-12-29T01:44:02;9.80;99.90
45837;DHT22;31548;51.420;-0.040;2022-12-29T01:46:39;9.70;99.90
45837;DHT22;31548;51.420;-0.040;2022-12-29T01:49:15;9.70;99.90
45837;DHT22;31548;51.420;-0.040;2022-12-29T01:51:54;9.70;99.90
45837;DHT22;31548;51.420;-0.040;2022-12-29T01:54:44;9.60;99.90
45837;DHT22;31548;51.420;-0.040;2022-12-29T01:57:21;9.60;99.90
45837;DHT22;31548;51.420;-0.040;2022-12-29T02:00:04;9.60;99.90
45837;DHT22;31548;51.420;-0.040;2022-12-29T02:02:39;9.60;99.90
45837;DHT22;31548;51.420;-0.040;2022-12-29T02:05:17;9.60;99.90
45837;DHT22;31548;51.420;-0.040;2022-12-29T02:07:45;9.60;99.90
45837;DHT22;31548;51.420;-0.040;2022-12-29T02:10:13;9.60;99.90
45837;DHT22;31548;51.420;-0.040;2022-12-29T02:12:41;9.50;99.90
45837;DHT22;31548;51.420;-0.040;2022-12-29T02:15:08;9.50;99.90
45837;DHT22;31548;51.420;-0.040;2022-12-29T02:26:47;9.50;99.90
45837;DHT22;31548;51.420;-0.040;2022-12-29T02:32:07;9.50;99.90
45837;DHT22;31548;51.420;-0.040;2022-12-29T02:34:49;9.40;99.90
45837;DHT22;31548;51.420;-0.040;2022-12-29T02:37:49;9.40;99.90
45837;DHT22;31548;51.420;-0.040;2022-12-29T02:40:37;9.40;99.90
45837;DHT22;31548;51.420;-0.040;2022-12-29T02:49:05;9.60;99.90
45837;DHT22;31548;51.420;-0.040;2022-12-29T02:52:07;9.60;99.90
45837;DHT22;31548;51.420;-0.040;2022-12-29T02:54:37;9.60;99.90
45837;DHT22;31548;51.420;-0.040;2022-12-29T02:57:26;9.60;99.90
45837;DHT22;31548;51.420;-0.040;2022-12-29T03:11:14;9.60;99.90
45837;DHT22;31548;51.420;-0.040;2022-12-29T03:14:26;9.70;99.90
45837;DHT22;31548;51.420;-0.040;2022-12-29T03:17:40;9.70;99.90
45837;DHT22;31548;51.420;-0.040;2022-12-29T03:20:10;9.80;99.90
45837;DHT22;31548;51.420;-0.040;2022-12-29T03:22:44;9.90;99.90
45837;DHT22;31548;51.420;-0.040;2022-12-29T03:25:26;9.90;99.90
45837;DHT22;31548;51.420;-0.040;2022-12-29T03:28:03;9.90;99.90
45837;DHT22;31548;51.420;-0.040;2022-12-29T03:30:38;9.90;99.90
45837;DHT22;31548;51.420;-0.040;2022-12-29T03:33:12;10.00;99.90
45837;DHT22;31548;51.420;-0.040;2022-12-29T03:35:42;10.00;99.90
45837;DHT22;31548;51.420;-0.040;2022-12-29T03:38:19;10.00;99.90
45837;DHT22;31548;51.420;-0.040;2022-12-29T03:40:53;10.00;99.90
45837;DHT22;31548;51.420;-0.040;2022-12-29T03:43:24;10.10;99.90
45837;DHT22;31548;51.420;-0.040;2022-12-29T03:45:54;10.10;99.90
45837;DHT22;31548;51.420;-0.040;2022-12-29T03:48:21;10.00;99.90
45837;DHT22;31548;51.420;-0.040;2022-12-29T03:50:50;10.10;99.90
45837;DHT22;31548;51.420;-0.040;2022-12-29T03:53:18;10.10;99.90
45837;DHT22;31548;51.420;-0.040;2022-12-29T03:55:45;10.10;99.90
45837;DHT22;31548;51.420;-0.040;2022-12-29T03:58:13;10.00;99.90
45837;DHT22;31548;51.420;-0.040;2022-12-29T04:01:00;10.10;99.90
45837;DHT22;31548;51.420;-0.040;2022-12-29T04:03:31;10.10;99.90
45837;DHT22;31548;51.420;-0.040;2022-12-29T04:05:58;10.10;99.90
45837;DHT22;31548;51.420;-0.040;2022-12-29T04:08:27;10.10;99.90
45837;DHT22;31548;51.420;-0.040;2022-12-29T04:10:55;10.10;99.90
45837;DHT22;31548;51.420;-0.040;2022-12-29T04:13:22;10.20;99.90
45837;DHT22;31548;51.420;-0.040;2022-12-29T04:15:51;10.20;99.90
45837;DHT22;31548;51.420;-0.040;2022-12-29T04:18:18;10.20;99.90
45837;DHT22;31548;51.420;-0.040;2022-12-29T04:20:46;10.20;99.90
45837;DHT22;31548;51.420;-0.040;2022-12-29T04:23:34;10.20;99.90
45837;DHT22;31548;51.420;-0.040;2022-12-29T04:26:04;10.20;99.90
45837;DHT22;31548;51.420;-0.040;2022-12-29T04:28:38;10.10;99.90
45837;DHT22;31548;51.420;-0.040;2022-12-29T04:31:29;10.00;99.90
45837;DHT22;31548;51.420;-0.040;2022-12-29T04:33:56;10.00;99.90
45837;DHT22;31548;51.420;-0.040;2022-12-29T04:36:24;9.90;99.90
45837;DHT22;31548;51.420;-0.040;2022-12-29T04:38:56;9.90;99.90
45837;DHT22;31548;51.420;-0.040;2022-12-29T04:41:24;9.90;99.90
45837;DHT22;31548;51.420;-0.040;2022-12-29T04:43:52;10.00;99.90
45837;DHT22;31548;51.420;-0.040;2022-12-29T04:46:38;10.00;99.90
45837;DHT22;31548;51.420;-0.040;2022-12-29T04:49:17;10.00;99.90
45837;DHT22;31548;51.420;-0.040;2022-12-29T04:51:52;10.00;99.90
45837;DHT22;31548;51.420;-0.040;2022-12-29T04:54:19;10.00;99.90
45837;DHT22;31548;51.420;-0.040;2022-12-29T04:56:54;10.00;99.90
45837;DHT22;31548;51.420;-0.040;2022-12-29T04:59:23;10.00;99.90
45837;DHT22;31548;51.420;-0.040;2022-12-29T05:01:54;9.90;99.90
45837;DHT22;31548;51.420;-0.040;2022-12-29T05:04:21;9.90;99.90
45837;DHT22;31548;51.420;-0.040;2022-12-29T05:06:49;10.00;99.90
45837;DHT22;31548;51.420;-0.040;2022-12-29T05:09:17;9.90;99.90
45837;DHT22;31548;51.420;-0.040;2022-12-29T05:11:44;9.90;99.90
45837;DHT22;31548;51.420;-0.040;2022-12-29T05:14:12;10.00;99.90
45837;DHT22;31548;51.420;-0.040;2022-12-29T05:16:40;9.90;99.90
45837;DHT22;31548;51.420;-0.040;2022-12-29T05:19:08;9.90;99.90
45837;DHT22;31548;51.420;-0.040;2022-12-29T05:21:35;9.80;99.90
45837;DHT22;31548;51.420;-0.040;2022-12-29T05:24:03;9.80;99.90
45837;DHT22;31548;51.420;-0.040;2022-12-29T05:26:30;9.80;99.90
45837;DHT22;31548;51.420;-0.040;2022-12-29T05:29:04;9.80;99.90
45837;DHT22;31548;51.420;-0.040;2022-12-29T05:31:32;9.80;99.90
45837;DHT22;31548;51.420;-0.040;2022-12-29T05:34:00;9.80;99.90
45837;DHT22;31548;51.420;-0.040;2022-12-29T05:36:28;9.80;99.90
45837;DHT22;31548;51.420;-0.040;2022-12-29T05:39:03;9.80;99.90
45837;DHT22;31548;51.420;-0.040;2022-12-29T05:41:32;9.80;99.90
45837;DHT22;31548;51.420;-0.040;2022-12-29T05:44:15;9.80;99.90
45837;DHT22;31548;51.420;-0.040;2022-12-29T05:47:03;9.80;99.90
45837;DHT22;31548;51.420;-0.040;2022-12-29T05:49:54;9.80;99.90
45837;DHT22;31548;51.420;-0.040;2022-12-29T05:52:53;9.90;99.90
45837;DHT22;31548;51.420;-0.040;2022-12-29T05:55:20;10.00;99.90
45837;DHT22;31548;51.420;-0.040;2022-12-29T05:57:50;9.90;99.90
45837;DHT22;31548;51.420;-0.040;2022-12-29T06:00:17;9.90;99.90
45837;DHT22;31548;51.420;-0.040;2022-12-29T06:02:46;9.90;99.90
45837;DHT22;31548;51.420;-0.040;2022-12-29T06:05:15;9.90;99.90
45837;DHT22;31548;51.420;-0.040;2022-12-29T06:07:43;10.00;99.90
45837;DHT22;31548;51.420;-0.040;2022-12-29T06:10:14;9.90;99.90
45837;DHT22;31548;51.420;-0.040;2022-12-29T06:12:45;9.90;99.90
45837;DHT22;31548;51.420;-0.040;2022-12-29T06:15:14;9.90;99.90
45837;DHT22;31548;51.420;-0.040;2022-12-29T06:17:43;9.90;99.90
45837;DHT22;31548;51.420;-0.040;2022-12-29T06:20:10;9.80;99.90
45837;DHT22;31548;51.420;-0.040;2022-12-29T06:22:38;9.80;99.90
45837;DHT22;31548;51.420;-0.040;2022-12-29T06:25:05;9.80;99.90
45837;DHT22;31548;51.420;-0.040;2022-12-29T06:27:34;9.80;99.90
45837;DHT22;31548;51.420;-0.040;2022-12-29T06:30:01;9.70;99.90
45837;DHT22;31548;51.420;-0.040;2022-12-29T06:32:30;9.70;99.90
45837;DHT22;31548;51.420;-0.040;2022-12-29T06:35:03;9.60;99.90
45837;DHT22;31548;51.420;-0.040;2022-12-29T06:37:31;9.60;99.90
45837;DHT22;31548;51.420;-0.040;2022-12-29T06:39:58;9.60;99.90
45837;DHT22;31548;51.420;-0.040;2022-12-29T06:42:33;9.60;99.90
45837;DHT22;31548;51.420;-0.040;2022-12-29T06:45:24;9.50;99.90
45837;DHT22;31548;51.420;-0.040;2022-12-29T06:47:51;9.50;99.90
45837;DHT22;31548;51.420;-0.040;2022-12-29T06:50:18;9.40;99.90
45837;DHT22;31548;51.420;-0.040;2022-12-29T06:52:46;9.40;99.90
45837;DHT22;31548;51.420;-0.040;2022-12-29T06:55:13;9.40;99.90
45837;DHT22;31548;51.420;-0.040;2022-12-29T06:57:40;9.40;99.90
45837;DHT22;31548;51.420;-0.040;2022-12-29T07:00:08;9.30;99.90
45837;DHT22;31548;51.420;-0.040;2022-12-29T07:02:35;9.30;99.90
45837;DHT22;31548;51.420;-0.040;2022-12-29T07:05:03;9.30;99.90
45837;DHT22;31548;51.420;-0.040;2022-12-29T07:07:30;9.30;99.90
45837;DHT22;31548;51.420;-0.040;2022-12-29T07:09:58;9.30;99.90
45837;DHT22;31548;51.420;-0.040;2022-12-29T07:12:25;9.30;99.90
45837;DHT22;31548;51.420;-0.040;2022-12-29T07:14:52;9.20;99.90
45837;DHT22;31548;51.420;-0.040;2022-12-29T07:17:20;9.20;99.90
45837;DHT22;31548;51.420;-0.040;2022-12-29T07:19:47;9.10;99.90
45837;DHT22;31548;51.420;-0.040;2022-12-29T07:22:15;9.10;99.90
45837;DHT22;31548;51.420;-0.040;2022-12-29T07:24:43;9.10;99.90
45837;DHT22;31548;51.420;-0.040;2022-12-29T07:27:10;9.10;99.90
45837;DHT22;31548;51.420;-0.040;2022-12-29T07:29:38;9.00;99.90
45837;DHT22;31548;51.420;-0.040;2022-12-29T07:32:05;9.00;99.90
45837;DHT22;31548;51.420;-0.040;2022-12-29T07:34:33;9.00;99.90
45837;DHT22;31548;51.420;-0.040;2022-12-29T07:37:00;9.00;99.90
45837;DHT22;31548;51.420;-0.040;2022-12-29T07:39:27;9.00;99.90
45837;DHT22;31548;51.420;-0.040;2022-12-29T07:41:54;8.90;99.90
45837;DHT22;31548;51.420;-0.040;2022-12-29T07:44:37;8.90;99.90
45837;DHT22;31548;51.420;-0.040;2022-12-29T07:47:22;8.90;99.90
45837;DHT22;31548;51.420;-0.040;2022-12-29T07:49:50;8.90;99.90
45837;DHT22;31548;51.420;-0.040;2022-12-29T07:52:17;8.90;99.90
45837;DHT22;31548;51.420;-0.040;2022-12-29T07:54:44;8.90;99.90
45837;DHT22;31548;51.420;-0.040;2022-12-29T07:57:12;8.90;99.90
45837;DHT22;31548;51.420;-0.040;2022-12-29T07:59:39;8.90;99.90
45837;DHT22;31548;51.420;-0.040;2022-12-29T08:02:09;8.80;99.90
45837;DHT22;31548;51.420;-0.040;2022-12-29T08:04:38;8.80;99.90
45837;DHT22;31548;51.420;-0.040;2022-12-29T08:07:05;8.80;99.90
45837;DHT22;31548;51.420;-0.040;2022-12-29T08:09:32;8.80;99.90
45837;DHT22;31548;51.420;-0.040;2022-12-29T08:12:00;8.80;99.90
45837;DHT22;31548;51.420;-0.040;2022-12-29T08:14:27;8.80;99.90
45837;DHT22;31548;51.420;-0.040;2022-12-29T08:16:54;8.80;99.90
45837;DHT22;31548;51.420;-0.040;2022-12-29T08:19:21;8.80;99.90
45837;DHT22;31548;51.420;-0.040;2022-12-29T08:21:49;8.80;99.90
45837;DHT22;31548;51.420;-0.040;2022-12-29T08:24:18;8.80;99.90
45837;DHT22;31548;51.420;-0.040;2022-12-29T08:26:45;8.80;99.90
45837;DHT22;31548;51.420;-0.040;2022-12-29T08:29:13;8.80;99.90
45837;DHT22;31548;51.420;-0.040;2022-12-29T08:31:52;8.80;99.90
45837;DHT22;31548;51.420;-0.040;2022-12-29T08:34:19;8.80;99.90
45837;DHT22;31548;51.420;-0.040;2022-12-29T08:36:47;8.70;99.90
45837;DHT22;31548;51.420;-0.040;2022-12-29T08:39:14;8.70;99.90
45837;DHT22;31548;51.420;-0.040;2022-12-29T08:41:41;8.70;99.90
45837;DHT22;31548;51.420;-0.040;2022-12-29T08:44:09;8.70;99.90
45837;DHT22;31548;51.420;-0.040;2022-12-29T08:46:36;8.70;99.90
45837;DHT22;31548;51.420;-0.040;2022-12-29T08:49:03;8.70;99.90
45837;DHT22;31548;51.420;-0.040;2022-12-29T08:51:31;8.80;99.90
45837;DHT22;31548;51.420;-0.040;2022-12-29T08:53:59;8.80;99.90
45837;DHT22;31548;51.420;-0.040;2022-12-29T08:56:26;8.80;99.90
45837;DHT22;31548;51.420;-0.040;2022-12-29T08:58:56;8.80;99.90
45837;DHT22;31548;51.420;-0.040;2022-12-29T09:01:24;8.80;99.90
45837;DHT22;31548;51.420;-0.040;2022-12-29T09:03:53;8.80;99.90
45837;DHT22;31548;51.420;-0.040;2022-12-29T09:06:41;8.70;99.90
45837;DHT22;31548;51.420;-0.040;2022-12-29T09:09:08;8.80;99.90
45837;DHT22;31548;51.420;-0.040;2022-12-29T09:11:36;8.80;99.90
45837;DHT22;31548;51.420;-0.040;2022-12-29T09:14:04;8.80;99.90
45837;DHT22;31548;51.420;-0.040;2022-12-29T09:16:31;8.90;99.90
45837;DHT22;31548;51.420;-0.040;2022-12-29T09:18:58;8.80;99.90
45837;DHT22;31548;51.420;-0.040;2022-12-29T09:21:26;8.80;99.90
45837;DHT22;31548;51.420;-0.040;2022-12-29T09:23:53;8.90;99.90
45837;DHT22;31548;51.420;-0.040;2022-12-29T09:26:20;8.80;99.90
45837;DHT22;31548;51.420;-0.040;2022-12-29T09:28:48;8.80;99.90
45837;DHT22;31548;51.420;-0.040;2022-12-29T09:31:15;8.80;99.90
45837;DHT22;31548;51.420;-0.040;2022-12-29T09:33:42;8.80;99.90
45837;DHT22;31548;51.420;-0.040;2022-12-29T09:36:09;8.90;99.90
45837;DHT22;31548;51.420;-0.040;2022-12-29T09:38:37;8.80;99.90
45837;DHT22;31548;51.420;-0.040;2022-12-29T09:41:28;8.90;99.90
45837;DHT22;31548;51.420;-0.040;2022-12-29T09:46:48;8.90;99.90
45837;DHT22;31548;51.420;-0.040;2022-12-29T09:49:30;8.90;99.90
45837;DHT22;31548;51.420;-0.040;2022-12-29T09:52:03;9.00;99.90
45837;DHT22;31548;51.420;-0.040;2022-12-29T09:54:55;9.00;99.90
45837;DHT22;31548;51.420;-0.040;2022-12-29T09:57:40;9.10;99.90
45837;DHT22;31548;51.420;-0.040;2022-12-29T10:00:16;9.10;99.90
45837;DHT22;31548;51.420;-0.040;2022-12-29T10:02:48;9.10;99.90
45837;DHT22;31548;51.420;-0.040;2022-12-29T10:08:05;9.20;99.90
45837;DHT22;31548;51.420;-0.040;2022-12-29T10:10:55;9.20;99.90
45837;DHT22;31548;51.420;-0.040;2022-12-29T10:16:23;9.40;99.90
45837;DHT22;31548;51.420;-0.040;2022-12-29T10:24:38;9.40;99.90
45837;DHT22;31548;51.420;-0.040;2022-12-29T10:27:13;9.40;99.90
45837;DHT22;31548;51.420;-0.040;2022-12-29T10:29:51;9.50;99.90
45837;DHT22;31548;51.420;-0.040;2022-12-29T10:35:11;9.30;99.90
45837;DHT22;31548;51.420;-0.040;2022-12-29T10:40:42;9.30;99.90
45837;DHT22;31548;51.420;-0.040;2022-12-29T10:43:29;9.30;99.90
45837;DHT22;31548;51.420;-0.040;2022-12-29T10:46:11;9.30;99.90
45837;DHT22;31548;51.420;-0.040;2022-12-29T10:48:40;9.30;99.90
45837;DHT22;31548;51.420;-0.040;2022-12-29T10:51:08;9.30;99.90
45837;DHT22;31548;51.420;-0.040;2022-12-29T10:53:49;9.30;99.90
45837;DHT22;31548;51.420;-0.040;2022-12-29T10:56:39;9.30;99.90
45837;DHT22;31548;51.420;-0.040;2022-12-29T10:59:25;9.30;99.90
45837;DHT22;31548;51.420;-0.040;2022-12-29T11:07:19;9.40;99.90
45837;DHT22;31548;51.420;-0.040;2022-12-29T11:09:53;9.30;99.90
45837;DHT22;31548;51.420;-0.040;2022-12-29T11:12:29;9.30;99.90
45837;DHT22;31548;51.420;-0.040;2022-12-29T11:15:13;9.30;99.90
45837;DHT22;31548;51.420;-0.040;2022-12-29T11:17:44;9.30;99.90
45837;DHT22;31548;51.420;-0.040;2022-12-29T11:20:36;9.30;99.90
45837;DHT22;31548;51.420;-0.040;2022-12-29T11:23:26;9.30;99.90
45837;DHT22;31548;51.420;-0.040;2022-12-29T11:26:25;9.30;99.90
45837;DHT22;31548;51.420;-0.040;2022-12-29T11:34:30;9.50;99.90
45837;DHT22;31548;51.420;-0.040;2022-12-29T11:37:02;9.50;99.90
45837;DHT22;31548;51.420;-0.040;2022-12-29T11:39:50;9.40;99.90
45837;DHT22;31548;51.420;-0.040;2022-12-29T11:42:23;9.50;99.90
45837;DHT22;31548;51.420;-0.040;2022-12-29T11:44:51;9.40;99.90
45837;DHT22;31548;51.420;-0.040;2022-12-29T11:47:29;9.40;99.90
45837;DHT22;31548;51.420;-0.040;2022-12-29T11:50:04;9.50;99.90
45837;DHT22;31548;51.420;-0.040;2022-12-29T11:52:35;9.50;99.90
45837;DHT22;31548;51.420;-0.040;2022-12-29T11:55:13;9.50;99.90
45837;DHT22;31548;51.420;-0.040;2022-12-29T11:57:43;9.60;99.90
45837;DHT22;31548;51.420;-0.040;2022-12-29T12:00:20;9.60;99.90
45837;DHT22;31548;51.420;-0.040;2022-12-29T12:08:40;9.50;99.90
45837;DHT22;31548;51.420;-0.040;2022-12-29T12:11:14;9.40;99.90
45837;DHT22;31548;51.420;-0.040;2022-12-29T12:17:19;9.50;99.90
45837;DHT22;31548;51.420;-0.040;2022-12-29T12:20:21;9.40;99.90
45837;DHT22;31548;51.420;-0.040;2022-12-29T12:23:02;9.50;99.90
45837;DHT22;31548;51.420;-0.040;2022-12-29T12:25:38;9.40;99.90
45837;DHT22;31548;51.420;-0.040;2022-12-29T12:28:11;9.50;99.90
45837;DHT22;31548;51.420;-0.040;2022-12-29T12:30:47;9.50;99.90
45837;DHT22;31548;51.420;-0.040;2022-12-29T12:33:27;9.50;99.90
45837;DHT22;31548;51.420;-0.040;2022-12-29T12:38:55;9.40;99.90
45837;DHT22;31548;51.420;-0.040;2022-12-29T12:44:28;9.40;99.90
45837;DHT22;31548;51.420;-0.040;2022-12-29T12:52:53;9.40;99.90
45837;DHT22;31548;51.420;-0.040;2022-12-29T13:01:44;9.50;99.90
45837;DHT22;31548;51.420;-0.040;2022-12-29T13:04:37;9.60;99.90
45837;DHT22;31548;51.420;-0.040;2022-12-29T13:10:12;9.70;99.90
45837;DHT22;31548;51.420;-0.040;2022-12-29T13:12:49;9.70;99.90
45837;DHT22;31548;51.420;-0.040;2022-12-29T13:26:35;9.70;99.90
45837;DHT22;31548;51.420;-0.040;2022-12-29T13:29:20;9.80;99.90
45837;DHT22;31548;51.420;-0.040;2022-12-29T13:37:30;9.80;99.90
45837;DHT22;31548;51.420;-0.040;2022-12-29T13:40:02;9.90;99.90
45837;DHT22;31548;51.420;-0.040;2022-12-29T13:42:31;9.90;99.90
45837;DHT22;31548;51.420;-0.040;2022-12-29T13:45:04;10.00;99.90
45837;DHT22;31548;51.420;-0.040;2022-12-29T13:47:42;10.00;99.90
45837;DHT22;31548;51.420;-0.040;2022-12-29T13:50:17;10.10;99.90
45837;DHT22;31548;51.420;-0.040;2022-12-29T13:55:55;10.00;99.90
45837;DHT22;31548;51.420;-0.040;2022-12-29T13:58:37;10.00;99.90
45837;DHT22;31548;51.420;-0.040;2022-12-29T14:01:18;9.90;99.90
45837;DHT22;31548;51.420;-0.040;2022-12-29T14:03:57;9.80;99.90
45837;DHT22;31548;51.420;-0.040;2022-12-29T14:06:32;9.80;99.90
45837;DHT22;31548;51.420;-0.040;2022-12-29T14:09:06;9.80;99.90
45837;DHT22;31548;51.420;-0.040;2022-12-29T14:12:01;9.80;99.90
45837;DHT22;31548;51.420;-0.040;2022-12-29T14:14:30;9.80;99.90
45837;DHT22;31548;51.420;-0.040;2022-12-29T14:17:20;9.80;99.90
45837;DHT22;31548;51.420;-0.040;2022-12-29T14:19:52;9.70;99.90
45837;DHT22;31548;51.420;-0.040;2022-12-29T14:22:24;9.80;99.90
45837;DHT22;31548;51.420;-0.040;2022-12-29T14:25:00;9.80;99.90
45837;DHT22;31548;51.420;-0.040;2022-12-29T14:29:55;9.70;99.90
45837;DHT22;31548;51.420;-0.040;2022-12-29T14:34:57;9.60;99.90
45837;DHT22;31548;51.420;-0.040;2022-12-29T14:37:33;9.60;99.90
45837;DHT22;31548;51.420;-0.040;2022-12-29T14:40:23;9.50;99.90
45837;DHT22;31548;51.420;-0.040;2022-12-29T14:42:55;9.50;99.90
45837;DHT22;31548;51.420;-0.040;2022-12-29T14:45:27;9.60;99.90
45837;DHT22;31548;51.420;-0.040;2022-12-29T14:47:56;9.60;99.90
45837;DHT22;31548;51.420;-0.040;2022-12-29T14:50:34;9.50;99.90
45837;DHT22;31548;51.420;-0.040;2022-12-29T14:53:05;9.50;99.90
45837;DHT22;31548;51.420;-0.040;2022-12-29T14:55:47;9.50;99.90
45837;DHT22;31548;51.420;-0.040;2022-12-29T14:58:48;9.50;99.90
45837;DHT22;31548;51.420;-0.040;2022-12-29T15:01:19;9.40;99.90
45837;DHT22;31548;51.420;-0.040;2022-12-29T15:03:54;9.40;99.90
45837;DHT22;31548;51.420;-0.040;2022-12-29T15:06:25;9.40;99.90
45837;DHT22;31548;51.420;-0.040;2022-12-29T15:09:04;9.40;99.90
45837;DHT22;31548;51.420;-0.040;2022-12-29T15:14:23;9.30;99.90
45837;DHT22;31548;51.420;-0.040;2022-12-29T15:16:50;9.30;99.90
45837;DHT22;31548;51.420;-0.040;2022-12-29T15:19:23;9.40;99.90
45837;DHT22;31548;51.420;-0.040;2022-12-29T15:21:50;9.40;99.90
45837;DHT22;31548;51.420;-0.040;2022-12-29T15:24:19;9.40;99.90
45837;DHT22;31548;51.420;-0.040;2022-12-29T15:26:49;9.40;99.90
45837;DHT22;31548;51.420;-0.040;2022-12-29T15:34:47;9.30;99.90
45837;DHT22;31548;51.420;-0.040;2022-12-29T15:37:27;9.30;99.90
45837;DHT22;31548;51.420;-0.040;2022-12-29T15:39:55;9.20;99.90
45837;DHT22;31548;51.420;-0.040;2022-12-29T15:42:36;9.20;99.90
45837;DHT22;31548;51.420;-0.040;2022-12-29T15:45:10;9.10;99.90
45837;DHT22;31548;51.420;-0.040;2022-12-29T15:47:39;9.10;99.90
45837;DHT22;31548;51.420;-0.040;2022-12-29T15:50:27;9.10;99.90
45837;DHT22;31548;51.420;-0.040;2022-12-29T15:52:56;9.00;99.90
45837;DHT22;31548;51.420;-0.040;2022-12-29T15:58:02;9.10;99.90
45837;DHT22;31548;51.420;-0.040;2022-12-29T16:00:34;9.00;99.90
45837;DHT22;31548;51.420;-0.040;2022-12-29T16:03:05;9.00;99.90
45837;DHT22;31548;51.420;-0.040;2022-12-29T16:05:38;9.00;99.90
45837;DHT22;31548;51.420;-0.040;2022-12-29T16:08:29;9.00;99.90
45837;DHT22;31548;51.420;-0.040;2022-12-29T16:11:22;9.00;99.90
45837;DHT22;31548;51.420;-0.040;2022-12-29T16:13:52;8.90;99.90
45837;DHT22;31548;51.420;-0.040;2022-12-29T16:16:31;8.90;99.90
45837;DHT22;31548;51.420;-0.040;2022-12-29T16:19:46;8.90;99.90
45837;DHT22;31548;51.420;-0.040;2022-12-29T16:21:52;8.80;99.90
45837;DHT22;31548;51.420;-0.040;2022-12-29T16:24:23;8.80;99.90
45837;DHT22;31548;51.420;-0.040;2022-12-29T16:27:12;8.80;99.90
45837;DHT22;31548;51.420;-0.040;2022-12-29T16:29:43;8.70;99.90
45837;DHT22;31548;51.420;-0.040;2022-12-29T16:32:28;8.70;99.90
45837;DHT22;31548;51.420;-0.040;2022-12-29T16:35:25;8.70;99.90
45837;DHT22;31548;51.420;-0.040;2022-12-29T16:38:30;8.70;99.90
45837;DHT22;31548;51.420;-0.040;2022-12-29T16:41:02;8.70;99.90
45837;DHT22;31548;51.420;-0.040;2022-12-29T16:43:34;8.80;99.90
45837;DHT22;31548;51.420;-0.040;2022-12-29T16:48:45;8.80;99.90
45837;DHT22;31548;51.420;-0.040;2022-12-29T16:51:16;8.80;99.90
45837;DHT22;31548;51.420;-0.040;2022-12-29T16:53:50;8.70;99.90
45837;DHT22;31548;51.420;-0.040;2022-12-29T16:56:31;8.70;99.90
45837;DHT22;31548;51.420;-0.040;2022-12-29T16:59:27;8.70;99.90
45837;DHT22;31548;51.420;-0.040;2022-12-29T17:01:59;8.60;99.90
45837;DHT22;31548;51.420;-0.040;2022-12-29T17:04:29;8.60;99.90
45837;DHT22;31548;51.420;-0.040;2022-12-29T17:06:57;8.60;99.90
45837;DHT22;31548;51.420;-0.040;2022-12-29T17:09:26;8.50;99.90
45837;DHT22;31548;51.420;-0.040;2022-12-29T17:11:56;8.50;99.90
45837;DHT22;31548;51.420;-0.040;2022-12-29T17:14:42;8.40;99.90
45837;DHT22;31548;51.420;-0.040;2022-12-29T17:20:28;8.40;99.90
45837;DHT22;31548;51.420;-0.040;2022-12-29T17:22:57;8.30;99.90
45837;DHT22;31548;51.420;-0.040;2022-12-29T17:25:29;8.30;99.90
45837;DHT22;31548;51.420;-0.040;2022-12-29T17:28:03;8.20;99.90
45837;DHT22;31548;51.420;-0.040;2022-12-29T17:30:32;8.20;99.90
45837;DHT22;31548;51.420;-0.040;2022-12-29T17:33:06;8.20;99.90
45837;DHT22;31548;51.420;-0.040;2022-12-29T17:35:36;8.20;99.90
45837;DHT22;31548;51.420;-0.040;2022-12-29T17:38:20;8.10;99.90
45837;DHT22;31548;51.420;-0.040;2022-12-29T17:40:48;8.10;99.90
45837;DHT22;31548;51.420;-0.040;2022-12-29T17:43:16;8.10;99.90
45837;DHT22;31548;51.420;-0.040;2022-12-29T17:45:47;8.10;99.90
45837;DHT22;31548;51.420;-0.040;2022-12-29T17:48:17;8.10;99.90
45837;DHT22;31548;51.420;-0.040;2022-12-29T17:50:50;8.10;99.90
45837;DHT22;31548;51.420;-0.040;2022-12-29T17:53:36;8.00;99.90
45837;DHT22;31548;51.420;-0.040;2022-12-29T17:56:04;8.00;99.90
45837;DHT22;31548;51.420;-0.040;2022-12-29T17:58:31;8.00;99.90
45837;DHT22;31548;51.420;-0.040;2022-12-29T18:01:00;7.90;99.90
45837;DHT22;31548;51.420;-0.040;2022-12-29T18:03:33;8.00;99.90
45837;DHT22;31548;51.420;-0.040;2022-12-29T18:06:02;8.00;99.90
45837;DHT22;31548;51.420;-0.040;2022-12-29T18:08:34;8.00;99.90
45837;DHT22;31548;51.420;-0.040;2022-12-29T18:11:01;7.90;99.90
45837;DHT22;31548;51.420;-0.040;2022-12-29T18:13:31;7.90;99.90
45837;DHT22;31548;51.420;-0.040;2022-12-29T18:16:13;7.90;99.90
45837;DHT22;31548;51.420;-0.040;2022-12-29T18:18:40;7.90;99.90
45837;DHT22;31548;51.420;-0.040;2022-12-29T18:21:17;7.90;99.90
45837;DHT22;31548;51.420;-0.040;2022-12-29T18:23:45;7.80;99.90